createdAt,value
2019-02-12T06:05:06.114Z,3
2019-02-12T06:11:36.487Z,7
2019-02-12T06:15:06.664Z,10
2019-02-12T06:17:36.833Z,13
2019-02-12T06:19:06.942Z,17
2019-02-12T06:20:07.028Z,20
2019-02-12T06:21:07.063Z,23
2019-02-12T06:21:37.080Z,27
2019-02-12T06:22:07.153Z,30
2019-02-12T06:22:37.122Z,33
2019-02-12T06:23:07.201Z,37
2019-02-12T06:23:37.212Z,40
2019-02-12T06:24:07.260Z,47
2019-02-12T06:24:37.274Z,50
2019-02-12T06:25:08.330Z,53
2019-02-12T06:25:37.328Z,57
2019-02-12T06:26:07.388Z,63
2019-02-12T06:26:37.401Z,67
2019-02-12T06:27:07.407Z,73
2019-02-12T06:27:37.471Z,80
2019-02-12T06:28:07.523Z,87
2019-02-12T06:28:37.524Z,93
2019-02-12T06:29:07.515Z,103
2019-02-12T06:29:37.589Z,110
2019-02-12T06:30:07.630Z,117
2019-02-12T06:30:37.679Z,127
2019-02-12T06:31:07.717Z,137
2019-02-12T06:31:37.677Z,147
2019-02-12T06:32:07.755Z,160
2019-02-12T06:32:37.750Z,170
2019-02-12T06:33:07.962Z,187
2019-02-12T06:33:37.809Z,200
2019-02-12T06:34:07.855Z,213
2019-02-12T06:34:37.881Z,227
2019-02-12T06:35:07.952Z,243
2019-02-12T06:35:37.933Z,253
2019-02-12T06:36:07.950Z,263
2019-02-12T06:36:37.984Z,270
2019-02-12T06:37:09.418Z,277
2019-02-12T06:37:38.041Z,283
2019-02-12T06:38:08.088Z,290
2019-02-12T06:38:38.126Z,303
2019-02-12T06:39:08.174Z,317
2019-02-12T06:39:38.199Z,333
2019-02-12T06:40:08.195Z,350
2019-02-12T06:40:38.264Z,367
2019-02-12T06:41:08.274Z,387
2019-02-12T06:41:38.333Z,407
2019-02-12T06:42:08.353Z,427
2019-02-12T06:42:38.381Z,447
2019-02-12T06:43:08.453Z,467
2019-02-12T06:43:38.431Z,483
2019-02-12T06:44:08.505Z,497
2019-02-12T06:44:38.508Z,507
2019-02-12T06:45:08.548Z,523
2019-02-12T06:45:38.622Z,550
2019-02-12T06:46:08.621Z,580
2019-02-12T06:46:38.623Z,613
2019-02-12T06:47:08.680Z,643
2019-02-12T06:47:38.701Z,683
2019-02-12T06:48:08.728Z,723
2019-02-12T06:48:38.766Z,757
2019-02-12T06:49:08.895Z,797
2019-02-12T06:49:38.798Z,837
2019-02-12T06:50:08.857Z,870
2019-02-12T06:50:38.883Z,900
2019-02-12T06:51:08.912Z,940
2019-02-12T06:51:38.925Z,983
2019-02-12T06:52:08.968Z,1043
2019-02-12T06:52:39.038Z,1103
2019-02-12T06:53:12.452Z,1160
2019-02-12T06:53:39.021Z,1223
2019-02-12T06:54:09.085Z,1283
2019-02-12T06:54:39.360Z,1343
2019-02-12T06:55:09.179Z,1367
2019-02-12T06:55:39.179Z,1360
2019-02-12T06:56:09.237Z,1370
2019-02-12T06:56:39.265Z,1410
2019-02-12T06:57:09.262Z,1460
2019-02-12T06:57:39.386Z,1500
2019-02-12T06:58:09.337Z,1530
2019-02-12T06:58:39.332Z,1587
2019-02-12T06:59:09.409Z,1667
2019-02-12T06:59:39.420Z,1757
2019-02-12T07:00:09.465Z,1847
2019-02-12T07:00:39.671Z,1920
2019-02-12T07:01:09.530Z,2000
2019-02-12T07:01:39.869Z,2070
2019-02-12T07:02:09.588Z,2120
2019-02-12T07:02:39.639Z,2227
2019-02-12T07:03:09.644Z,2383
2019-02-12T07:03:39.685Z,2560
2019-02-12T07:04:09.709Z,2717
2019-02-12T07:04:39.718Z,2780
2019-02-12T07:05:09.770Z,2733
2019-02-12T07:05:39.825Z,2630
2019-02-12T07:06:09.840Z,2560
2019-02-12T07:07:09.900Z,2600
2019-02-12T07:07:39.922Z,2633
2019-02-12T07:08:09.950Z,2620
2019-02-12T07:08:40.031Z,2603
2019-02-12T07:09:10.029Z,2593
2019-02-12T07:09:40.028Z,2553
2019-02-12T07:10:10.079Z,2533
2019-02-12T07:10:40.103Z,2553
2019-02-12T07:11:10.104Z,2580
2019-02-12T07:11:40.216Z,2623
2019-02-12T07:12:10.241Z,2667
2019-02-12T07:12:40.226Z,2730
2019-02-12T07:13:10.264Z,2803
2019-02-12T07:13:40.305Z,2870
2019-02-12T07:14:10.320Z,2950
2019-02-12T07:14:40.348Z,3040
2019-02-12T07:15:10.408Z,3130
2019-02-12T07:15:40.400Z,3230
2019-02-12T07:16:10.415Z,3373
2019-02-12T07:16:40.471Z,3507
2019-02-12T07:17:10.495Z,3550
2019-02-12T07:17:40.538Z,3533
2019-02-12T07:18:10.550Z,3550
2019-02-12T07:18:40.588Z,3640
2019-02-12T07:19:10.601Z,3783
2019-02-12T07:19:40.645Z,3740
2019-02-12T07:20:10.662Z,3703
2019-02-12T07:20:40.700Z,3730
2019-02-12T07:21:10.719Z,3813
2019-02-12T07:21:40.779Z,3847
2019-02-12T07:22:10.783Z,3830
2019-02-12T07:22:40.836Z,4060
2019-02-12T07:23:10.849Z,3920
2019-02-12T07:23:40.871Z,3980
2019-02-12T07:24:10.899Z,3877
2019-02-12T07:24:40.929Z,3653
2019-02-12T07:25:10.962Z,3503
2019-02-12T07:25:41.035Z,3693
2019-02-12T07:26:11.022Z,3960
2019-02-12T07:26:41.100Z,3853
2019-02-12T07:27:11.103Z,4127
2019-02-12T07:27:41.157Z,4233
2019-02-12T07:28:11.193Z,3863
2019-02-12T07:28:41.218Z,3767
2019-02-12T07:29:11.234Z,3790
2019-02-12T07:29:41.304Z,3843
2019-02-12T07:30:11.305Z,3910
2019-02-12T07:30:41.501Z,3993
2019-02-12T07:31:11.417Z,4250
2019-02-12T07:31:41.386Z,4620
2019-02-12T07:32:11.440Z,4763
2019-02-12T07:32:41.464Z,4817
2019-02-12T07:33:13.254Z,4863
2019-02-12T07:33:41.535Z,5177
2019-02-12T07:34:11.556Z,5980
2019-02-12T07:34:41.573Z,7110
2019-02-12T07:35:11.610Z,7107
2019-02-12T07:35:41.645Z,6053
2019-02-12T07:36:11.697Z,4717
2019-02-12T07:36:41.662Z,4300
2019-02-12T07:37:11.694Z,5413
2019-02-12T07:37:41.739Z,6493
2019-02-12T07:38:11.774Z,6267
2019-02-12T07:38:41.812Z,4927
2019-02-12T07:39:11.869Z,4347
2019-02-12T07:39:41.906Z,4433
2019-02-12T07:40:11.929Z,4927
2019-02-12T07:40:41.936Z,5790
2019-02-12T07:41:19.832Z,5813
2019-02-12T07:41:42.007Z,5220
2019-02-12T07:42:12.042Z,5403
2019-02-12T07:42:42.067Z,6180
2019-02-12T07:43:12.114Z,6837
2019-02-12T07:43:42.124Z,7437
2019-02-12T07:44:12.166Z,6653
2019-02-12T07:44:42.191Z,5637
2019-02-12T07:45:12.236Z,5480
2019-02-12T07:45:42.246Z,5537
2019-02-12T07:46:12.315Z,5943
2019-02-12T07:46:42.310Z,5710
2019-02-12T07:47:12.348Z,5830
2019-02-12T07:47:42.337Z,6960
2019-02-12T07:48:12.434Z,8113
2019-02-12T07:48:42.430Z,9230
2019-02-12T07:49:12.475Z,7893
2019-02-12T07:49:42.495Z,6417
2019-02-12T07:50:12.549Z,6080
2019-02-12T07:50:42.532Z,6000
2019-02-12T07:51:12.636Z,6410
2019-02-12T07:51:42.614Z,5633
2019-02-12T07:52:12.661Z,5990
2019-02-12T07:52:42.649Z,6173
2019-02-12T07:53:12.731Z,5080
2019-02-12T07:53:42.742Z,4743
2019-02-12T07:54:42.795Z,4867
2019-02-12T07:55:12.904Z,5063
2019-02-12T07:55:42.843Z,5323
2019-02-12T07:56:12.913Z,5420
2019-02-12T07:56:42.924Z,5587
2019-02-12T07:57:12.936Z,5917
2019-02-12T07:57:43.001Z,6520
2019-02-12T07:58:13.010Z,7633
2019-02-12T07:58:43.054Z,8110
2019-02-12T07:59:13.051Z,9077
2019-02-12T07:59:43.109Z,9553
2019-02-12T08:00:13.127Z,9900
2019-02-12T08:00:43.168Z,10160
2019-02-12T08:01:13.196Z,12017
2019-02-12T08:01:43.233Z,13667
2019-02-12T08:02:13.248Z,13900
2019-02-12T08:02:43.263Z,15420
2019-02-12T08:03:13.330Z,14940
2019-02-12T08:03:43.351Z,12927
2019-02-12T08:04:13.366Z,13647
2019-02-12T08:04:43.421Z,12373
2019-02-12T08:05:13.475Z,8653
2019-02-12T08:05:43.464Z,12030
2019-02-12T08:06:13.505Z,13347
2019-02-12T08:06:43.542Z,12417
2019-02-12T08:07:13.548Z,13750
2019-02-12T08:07:43.605Z,12743
2019-02-12T08:08:13.681Z,10963
2019-02-12T08:08:43.634Z,13600
2019-02-12T08:09:13.698Z,12187
2019-02-12T08:09:43.694Z,12060
2019-02-12T08:10:15.278Z,11683
2019-02-12T08:10:43.874Z,10960
2019-02-12T08:11:13.781Z,10820
2019-02-12T08:11:43.816Z,10343
2019-02-12T08:12:13.862Z,10497
2019-02-12T08:12:43.898Z,10257
2019-02-12T08:13:13.921Z,10610
2019-02-12T08:13:43.947Z,7910
2019-02-12T08:14:13.975Z,7810
2019-02-12T08:14:44.003Z,8037
2019-02-12T08:15:14.047Z,9770
2019-02-12T08:15:44.107Z,9553
2019-02-12T08:16:14.153Z,9227
2019-02-12T08:16:44.118Z,9390
2019-02-12T08:17:14.220Z,9417
2019-02-12T08:17:44.233Z,9577
2019-02-12T08:18:14.230Z,9927
2019-02-12T08:18:44.268Z,10093
2019-02-12T08:19:14.330Z,9627
2019-02-12T08:19:44.317Z,9960
2019-02-12T08:20:14.401Z,12427
2019-02-12T08:20:44.412Z,11553
2019-02-12T08:21:14.444Z,12210
2019-02-12T08:21:44.471Z,11570
2019-02-12T08:22:14.505Z,12270
2019-02-12T08:22:44.540Z,12460
2019-02-12T08:23:14.533Z,13543
2019-02-12T08:23:44.586Z,11823
2019-02-12T08:24:14.589Z,12353
2019-02-12T08:24:44.710Z,10533
2019-02-12T08:25:14.706Z,10897
2019-02-12T08:25:44.717Z,10587
2019-02-12T08:26:14.756Z,11237
2019-02-12T08:26:45.093Z,11743
2019-02-12T08:27:14.810Z,12270
2019-02-12T08:27:44.862Z,12323
2019-02-12T08:28:14.875Z,12597
2019-02-12T08:28:44.890Z,12663
2019-02-12T08:29:14.939Z,15697
2019-02-12T08:29:44.953Z,14960
2019-02-12T08:30:14.959Z,15253
2019-02-12T08:30:45.025Z,15873
2019-02-12T08:31:15.033Z,16287
2019-02-12T08:31:45.078Z,16270
2019-02-12T08:32:15.154Z,15827
2019-02-12T08:32:45.131Z,15317
2019-02-12T08:33:15.182Z,15603
2019-02-12T08:33:45.318Z,17030
2019-02-12T08:34:15.251Z,19803
2019-02-12T08:34:45.269Z,22013
2019-02-12T08:35:15.295Z,15057
2019-02-12T08:35:45.321Z,14770
2019-02-12T08:36:15.351Z,15107
2019-02-12T08:36:45.380Z,15493
2019-02-12T08:37:15.425Z,15760
2019-02-12T08:37:45.451Z,16297
2019-02-12T08:38:15.498Z,17003
2019-02-12T08:38:45.526Z,16837
2019-02-12T08:39:15.556Z,16993
2019-02-12T08:39:45.577Z,17007
2019-02-12T08:40:16.140Z,17167
2019-02-12T08:40:45.629Z,17107
2019-02-12T08:41:15.632Z,17187
2019-02-12T08:41:45.692Z,16913
2019-02-12T08:42:16.881Z,15730
2019-02-12T08:42:45.855Z,15697
2019-02-12T08:43:15.755Z,16367
2019-02-12T08:43:45.818Z,16703
2019-02-12T08:44:15.859Z,17150
2019-02-12T08:44:45.882Z,17643
2019-02-12T08:45:15.878Z,17800
2019-02-12T08:45:45.916Z,17630
2019-02-12T08:46:15.971Z,17650
2019-02-12T08:46:46.014Z,17317
2019-02-12T08:47:16.065Z,16147
2019-02-12T08:47:46.058Z,15263
2019-02-12T08:48:16.124Z,15317
2019-02-12T08:48:46.120Z,15870
2019-02-12T08:49:16.171Z,16213
2019-02-12T08:49:46.183Z,16400
2019-02-12T08:50:18.260Z,16050
2019-02-12T08:50:46.221Z,15703
2019-02-12T08:51:16.300Z,15263
2019-02-12T08:51:46.388Z,14613
2019-02-12T08:52:16.351Z,14120
2019-02-12T08:52:46.372Z,13810
2019-02-12T08:53:16.675Z,13450
2019-02-12T08:53:50.412Z,12413
2019-02-12T08:54:16.496Z,12013
2019-02-12T08:54:46.494Z,12590
2019-02-12T08:55:16.544Z,12117
2019-02-12T08:55:46.553Z,11213
2019-02-12T08:56:16.599Z,10917
2019-02-12T08:56:46.603Z,10930
2019-02-12T08:57:16.625Z,11423
2019-02-12T08:57:46.666Z,11880
2019-02-12T08:58:16.671Z,12283
2019-02-12T08:58:46.718Z,12667
2019-02-12T08:59:16.745Z,12827
2019-02-12T08:59:46.787Z,13017
2019-02-12T09:00:16.810Z,13157
2019-02-12T09:00:47.467Z,13397
2019-02-12T09:01:16.859Z,13690
2019-02-12T09:01:46.928Z,13827
2019-02-12T09:02:16.936Z,13897
2019-02-12T09:02:46.951Z,13950
2019-02-12T09:03:16.993Z,13993
2019-02-12T09:03:47.013Z,13723
2019-02-12T09:04:17.090Z,12797
2019-02-12T09:04:47.118Z,11117
2019-02-12T09:05:17.107Z,10410
2019-02-12T09:05:47.138Z,10707
2019-02-12T09:06:17.175Z,11583
2019-02-12T09:06:47.219Z,11973
2019-02-12T09:07:17.224Z,11183
2019-02-12T09:07:47.281Z,10587
2019-02-12T09:08:17.308Z,9070
2019-02-12T09:08:47.419Z,7400
2019-02-12T09:09:17.489Z,6400
2019-02-12T09:09:47.414Z,5870
2019-02-12T09:10:17.481Z,5623
2019-02-12T09:10:47.500Z,5247
2019-02-12T09:11:17.519Z,5033
2019-02-12T09:11:47.553Z,5580
2019-02-12T09:12:17.592Z,5753
2019-02-12T09:12:47.585Z,6120
2019-02-12T09:13:17.650Z,5357
2019-02-12T09:13:47.626Z,4363
2019-02-12T09:14:17.700Z,4233
2019-02-12T09:14:47.715Z,4333
2019-02-12T09:15:17.761Z,4157
2019-02-12T09:15:47.863Z,3847
2019-02-12T09:16:17.777Z,3683
2019-02-12T09:16:47.852Z,3420
2019-02-12T09:17:17.879Z,3553
2019-02-12T09:17:47.923Z,4243
2019-02-12T09:18:17.945Z,5127
2019-02-12T09:18:47.964Z,5947
2019-02-12T09:19:18.007Z,6563
2019-02-12T09:19:48.029Z,6193
2019-02-12T09:20:18.073Z,5380
2019-02-12T09:20:48.083Z,4993
2019-02-12T09:21:18.188Z,6067
2019-02-12T09:21:48.143Z,6720
2019-02-12T09:22:18.239Z,7100
2019-02-12T09:22:48.223Z,6163
2019-02-12T09:23:18.270Z,5620
2019-02-12T09:23:48.254Z,6187
2019-02-12T09:24:18.313Z,6703
2019-02-12T09:24:48.339Z,10210
2019-02-12T09:25:18.374Z,12100
2019-02-12T09:25:48.398Z,11500
2019-02-12T09:26:18.461Z,12670
2019-02-12T09:26:48.473Z,14277
2019-02-12T09:27:18.530Z,13990
2019-02-12T09:27:48.519Z,12673
2019-02-12T09:28:18.564Z,11850
2019-02-12T09:28:48.594Z,13000
2019-02-12T09:29:18.638Z,18183
2019-02-12T09:29:48.613Z,20973
2019-02-12T09:30:18.669Z,21653
2019-02-12T09:30:48.705Z,20253
2019-02-12T09:31:18.779Z,16930
2019-02-12T09:31:48.762Z,14893
2019-02-12T09:32:18.806Z,10930
2019-02-12T09:32:48.820Z,7773
2019-02-12T09:33:18.871Z,6470
2019-02-12T09:33:48.889Z,5177
2019-02-12T09:34:18.915Z,4497
2019-02-12T09:34:48.932Z,4177
2019-02-12T09:35:18.991Z,3800
2019-02-12T09:35:49.025Z,3730
2019-02-12T09:36:19.019Z,3470
2019-02-12T09:36:49.080Z,3147
2019-02-12T09:37:19.113Z,3493
2019-02-12T09:37:49.130Z,4173
2019-02-12T09:38:19.173Z,4097
2019-02-12T09:38:49.161Z,4867
2019-02-12T09:39:19.261Z,5550
2019-02-12T09:39:49.253Z,5507
2019-02-12T09:40:19.533Z,7730
2019-02-12T09:40:49.360Z,9173
2019-02-12T09:41:19.361Z,9667
2019-02-12T09:41:49.375Z,11273
2019-02-12T09:42:19.428Z,14087
2019-02-12T09:42:49.437Z,16370
2019-02-12T09:43:19.459Z,16830
2019-02-12T09:43:49.498Z,17580
2019-02-12T09:44:19.508Z,14277
2019-02-12T09:44:49.581Z,14650
2019-02-12T09:45:19.609Z,15190
2019-02-12T09:45:49.610Z,14637
2019-02-12T09:46:19.639Z,16090
2019-02-12T09:46:49.656Z,27733
2019-02-12T09:47:19.690Z,26687
2019-02-12T09:47:49.736Z,27050
2019-02-12T09:48:19.805Z,28910
2019-02-12T09:48:49.868Z,27310
2019-02-12T09:49:19.826Z,25890
2019-02-12T09:49:49.848Z,24897
2019-02-12T09:50:19.876Z,27350
2019-02-12T09:50:49.919Z,27427
2019-02-12T09:51:19.933Z,27913
2019-02-12T09:51:49.987Z,26087
2019-02-12T09:52:19.991Z,27493
2019-02-12T09:52:50.055Z,28523
2019-02-12T09:53:20.080Z,27847
2019-02-12T09:53:50.119Z,27713
2019-02-12T09:54:20.164Z,27180
2019-02-12T09:54:50.179Z,27953
2019-02-12T09:55:20.214Z,29447
2019-02-12T09:55:50.241Z,28783
2019-02-12T09:56:20.283Z,29777
2019-02-12T09:56:50.332Z,29227
2019-02-12T09:57:20.313Z,29117
2019-02-12T09:57:50.385Z,28063
2019-02-12T09:58:20.408Z,27720
2019-02-12T09:58:50.447Z,22750
2019-02-12T09:59:20.439Z,28470
2019-02-12T09:59:50.487Z,28697
2019-02-12T10:00:20.531Z,26197
2019-02-12T10:00:50.546Z,29010
2019-02-12T10:01:20.598Z,26860
2019-02-12T10:01:50.616Z,25777
2019-02-12T10:02:20.608Z,20453
2019-02-12T10:02:50.650Z,23407
2019-02-12T10:03:20.722Z,27767
2019-02-12T10:03:50.724Z,27943
2019-02-12T10:04:20.729Z,27523
2019-02-12T10:04:50.792Z,28173
2019-02-12T10:05:20.797Z,28113
2019-02-12T10:05:50.829Z,27613
2019-02-12T10:06:22.160Z,27397
2019-02-12T10:06:50.922Z,26403
2019-02-12T10:07:20.953Z,25483
2019-02-12T10:07:51.011Z,25973
2019-02-12T10:08:21.023Z,26423
2019-02-12T10:08:51.042Z,26230
2019-02-12T10:09:21.090Z,25983
2019-02-12T10:09:51.120Z,25803
2019-02-12T10:10:21.142Z,26507
2019-02-12T10:10:51.200Z,26327
2019-02-12T10:11:21.265Z,26167
2019-02-12T10:11:51.220Z,26347
2019-02-12T10:12:21.273Z,26450
2019-02-12T10:12:51.315Z,26957
2019-02-12T10:13:21.326Z,27457
2019-02-12T10:13:51.320Z,27610
2019-02-12T10:14:21.392Z,26880
2019-02-12T10:14:51.437Z,28253
2019-02-12T10:15:21.460Z,28587
2019-02-12T10:15:51.470Z,29573
2019-02-12T10:16:21.544Z,31327
2019-02-12T10:16:51.539Z,30410
2019-02-12T10:17:21.538Z,29427
2019-02-12T10:17:51.592Z,29073
2019-02-12T10:18:21.645Z,29227
2019-02-12T10:18:51.674Z,19543
2019-02-12T10:19:21.705Z,30393
2019-02-12T10:19:51.724Z,31033
2019-02-12T10:20:21.764Z,29957
2019-02-12T10:20:51.785Z,29993
2019-02-12T10:21:21.829Z,18140
2019-02-12T10:21:51.834Z,21197
2019-02-12T10:22:21.889Z,31233
2019-02-12T10:22:51.898Z,31737
2019-02-12T10:23:21.960Z,30890
2019-02-12T10:23:51.961Z,30190
2019-02-12T10:24:22.003Z,29377
2019-02-12T10:24:52.018Z,30213
2019-02-12T10:25:22.136Z,31900
2019-02-12T10:25:52.068Z,30933
2019-02-12T10:26:22.133Z,32373
2019-02-12T10:26:52.151Z,25600
2019-02-12T10:27:22.186Z,22213
2019-02-12T10:27:52.197Z,22603
2019-02-12T10:28:22.269Z,23277
2019-02-12T10:28:52.248Z,21490
2019-02-12T10:29:22.314Z,22020
2019-02-12T10:29:52.342Z,23480
2019-02-12T10:30:22.379Z,24020
2019-02-12T10:30:52.403Z,26133
2019-02-12T10:31:22.458Z,25380
2019-02-12T10:31:52.463Z,24823
2019-02-12T10:32:22.509Z,25083
2019-02-12T10:32:52.491Z,26537
2019-02-12T10:33:22.538Z,22850
2019-02-12T10:33:52.553Z,23510
2019-02-12T10:34:22.650Z,31190
2019-02-12T10:34:52.736Z,26080
2019-02-12T10:35:22.672Z,26323
2019-02-12T10:35:52.982Z,41767
2019-02-12T10:36:22.711Z,30297
2019-02-12T10:36:52.737Z,27573
2019-02-12T10:37:22.783Z,32617
2019-02-12T10:37:52.806Z,28083
2019-02-12T10:38:22.884Z,39277
2019-02-12T10:38:52.871Z,26363
2019-02-12T10:39:22.886Z,25757
2019-02-12T10:39:52.930Z,19027
2019-02-12T10:40:22.950Z,15247
2019-02-12T10:40:52.980Z,12657
2019-02-12T10:41:23.048Z,11573
2019-02-12T10:41:53.041Z,12737
2019-02-12T10:42:23.117Z,14387
2019-02-12T10:42:53.160Z,16577
2019-02-12T10:43:23.302Z,18850
2019-02-12T10:43:53.163Z,19580
2019-02-12T10:44:23.216Z,18940
2019-02-12T10:44:53.272Z,18900
2019-02-12T10:45:23.307Z,18023
2019-02-12T10:45:53.319Z,17510
2019-02-12T10:46:23.346Z,19140
2019-02-12T10:46:53.432Z,20313
2019-02-12T10:47:23.440Z,20843
2019-02-12T10:47:53.436Z,21037
2019-02-12T10:48:23.484Z,20583
2019-02-12T10:48:53.494Z,23750
2019-02-12T10:49:23.544Z,27240
2019-02-12T10:49:53.546Z,27170
2019-02-12T10:50:23.619Z,24180
2019-02-12T10:50:53.634Z,21317
2019-02-12T10:51:23.656Z,20220
2019-02-12T10:51:53.681Z,18703
2019-02-12T10:52:23.731Z,16463
2019-02-12T10:52:53.742Z,25760
2019-02-12T10:53:23.773Z,19270
2019-02-12T10:53:53.849Z,21327
2019-02-12T10:54:27.700Z,20990
2019-02-12T10:54:53.862Z,18667
2019-02-12T10:55:23.914Z,15723
2019-02-12T10:55:53.941Z,13610
2019-02-12T10:56:23.982Z,12407
2019-02-12T10:56:53.967Z,11803
2019-02-12T10:57:24.032Z,12343
2019-02-12T10:57:54.048Z,14757
2019-02-12T10:58:24.056Z,14480
2019-02-12T10:58:54.112Z,18560
2019-02-12T10:59:24.160Z,28570
2019-02-12T10:59:54.170Z,33027
2019-02-12T11:00:24.182Z,37830
2019-02-12T11:00:54.243Z,40520
2019-02-12T11:01:24.288Z,41963
2019-02-12T11:01:54.300Z,41830
2019-02-12T11:02:24.339Z,33177
2019-02-12T11:02:54.378Z,36710
2019-02-12T11:03:24.403Z,29707
2019-02-12T11:03:54.401Z,11873
2019-02-12T11:04:24.460Z,14303
2019-02-12T11:04:54.494Z,30323
2019-02-12T11:05:24.540Z,32787
2019-02-12T11:05:54.546Z,32630
2019-02-12T11:06:24.598Z,32503
2019-02-12T11:06:54.614Z,32130
2019-02-12T11:07:24.642Z,32460
2019-02-12T11:07:54.667Z,32553
2019-02-12T11:08:24.713Z,32557
2019-02-12T11:08:54.743Z,32793
2019-02-12T11:09:24.771Z,32790
2019-02-12T11:09:55.094Z,33083
2019-02-12T11:10:24.837Z,33403
2019-02-12T11:10:54.869Z,33430
2019-02-12T11:11:24.898Z,33587
2019-02-12T11:11:54.912Z,33580
2019-02-12T11:12:24.921Z,33267
2019-02-12T11:12:54.975Z,32067
2019-02-12T11:13:25.052Z,32230
2019-02-12T11:13:55.037Z,32503
2019-02-12T11:14:25.133Z,32613
2019-02-12T11:14:55.105Z,33223
2019-02-12T11:15:25.149Z,27700
2019-02-12T11:15:55.163Z,33740
2019-02-12T11:16:25.309Z,30437
2019-02-12T11:16:55.230Z,33790
2019-02-12T11:17:25.269Z,33843
2019-02-12T11:17:55.291Z,33957
2019-02-12T11:18:25.336Z,34153
2019-02-12T11:18:55.355Z,34107
2019-02-12T11:19:25.398Z,33990
2019-02-12T11:19:55.431Z,33873
2019-02-12T11:20:25.480Z,33720
2019-02-12T11:20:55.512Z,33860
2019-02-12T11:21:25.548Z,34303
2019-02-12T11:21:55.510Z,25313
2019-02-12T11:22:25.645Z,26710
2019-02-12T11:22:55.592Z,28327
2019-02-12T11:23:25.616Z,30110
2019-02-12T11:23:55.814Z,30297
2019-02-12T11:24:25.700Z,31563
2019-02-12T11:24:55.689Z,33073
2019-02-12T11:25:25.729Z,30890
2019-02-12T11:25:55.765Z,31550
2019-02-12T11:26:25.807Z,34713
2019-02-12T11:26:55.838Z,36083
2019-02-12T11:27:25.840Z,38190
2019-02-12T11:27:55.934Z,40580
2019-02-12T11:28:25.970Z,44867
2019-02-12T11:28:55.999Z,48513
2019-02-12T11:29:26.082Z,51240
2019-02-12T11:29:56.065Z,51137
2019-02-12T11:30:26.137Z,49103
2019-02-12T11:30:56.144Z,46647
2019-02-12T11:31:26.231Z,44960
2019-02-12T11:31:56.214Z,44313
2019-02-12T11:32:26.244Z,42807
2019-02-12T11:32:56.308Z,41047
2019-02-12T11:33:26.304Z,38940
2019-02-12T11:33:56.343Z,37577
2019-02-12T11:34:26.373Z,37863
2019-02-12T11:34:56.421Z,39543
2019-02-12T11:35:26.520Z,30200
2019-02-12T11:35:56.443Z,40843
2019-02-12T11:36:26.531Z,36620
2019-02-12T11:36:56.516Z,39553
2019-02-12T11:37:26.556Z,38563
2019-02-12T11:37:56.593Z,30153
2019-02-12T11:38:26.627Z,33830
2019-02-12T11:38:56.657Z,34367
2019-02-12T11:39:26.686Z,34400
2019-02-12T11:39:56.699Z,34403
2019-02-12T11:40:26.745Z,27833
2019-02-12T11:40:56.822Z,36757
2019-02-12T11:41:26.868Z,39067
2019-02-12T11:41:56.874Z,40553
2019-02-12T11:42:26.870Z,40607
2019-02-12T11:42:56.898Z,41273
2019-02-12T11:43:26.936Z,40580
2019-02-12T11:43:56.963Z,41027
2019-02-12T11:44:27.017Z,41923
2019-02-12T11:44:57.073Z,42180
2019-02-12T11:45:27.059Z,40557
2019-02-12T11:45:57.092Z,38980
2019-02-12T11:46:27.154Z,14127
2019-02-12T11:46:57.134Z,13507
2019-02-12T11:47:27.149Z,12997
2019-02-12T11:47:57.201Z,32453
2019-02-12T11:48:27.211Z,35450
2019-02-12T11:48:57.233Z,13423
2019-02-12T11:49:27.313Z,34813
2019-02-12T11:49:57.297Z,34783
2019-02-12T11:50:27.388Z,35560
2019-02-12T11:50:57.385Z,37083
2019-02-12T11:51:27.440Z,38890
2019-02-12T11:51:57.445Z,33083
2019-02-12T11:52:27.492Z,44393
2019-02-12T11:52:57.509Z,47823
2019-02-12T11:53:28.072Z,47357
2019-02-12T11:53:57.566Z,45047
2019-02-12T11:54:27.615Z,41150
2019-02-12T11:54:57.668Z,38010
2019-02-12T11:55:27.671Z,36677
2019-02-12T11:55:57.679Z,33400
2019-02-12T11:56:27.771Z,35830
2019-02-12T11:56:57.750Z,36893
2019-02-12T11:57:27.830Z,37140
2019-02-12T11:57:57.811Z,36857
2019-02-12T11:58:27.868Z,39950
2019-02-12T11:58:57.877Z,43197
2019-02-12T11:59:27.902Z,45863
2019-02-12T11:59:57.929Z,47143
2019-02-12T12:00:27.996Z,46887
2019-02-12T12:00:57.971Z,27837
2019-02-12T12:01:28.095Z,25103
2019-02-12T12:01:58.057Z,47517
2019-02-12T12:02:28.097Z,49013
2019-02-12T12:02:58.119Z,48260
2019-02-12T12:03:28.162Z,45080
2019-02-12T12:03:58.187Z,43793
2019-02-12T12:04:28.239Z,42873
2019-02-12T12:04:58.253Z,42127
2019-02-12T12:05:28.415Z,39863
2019-02-12T12:05:58.313Z,21530
2019-02-12T12:06:28.381Z,21553
2019-02-12T12:06:58.375Z,21943
2019-02-12T12:07:28.406Z,28577
2019-02-12T12:07:58.442Z,25233
2019-02-12T12:08:28.441Z,24990
2019-02-12T12:08:58.502Z,25963
2019-02-12T12:09:28.523Z,31177
2019-02-12T12:09:58.522Z,44563
2019-02-12T12:10:28.594Z,48607
2019-02-12T12:10:58.590Z,22897
2019-02-12T12:11:28.684Z,21023
2019-02-12T12:11:58.688Z,22850
2019-02-12T12:12:28.683Z,22760
2019-02-12T12:12:58.740Z,23827
2019-02-12T12:13:28.757Z,23080
2019-02-12T12:13:58.770Z,21767
2019-02-12T12:14:28.798Z,22653
2019-02-12T12:14:58.876Z,21960
2019-02-12T12:15:28.858Z,24023
2019-02-12T12:15:58.954Z,25980
2019-02-12T12:16:28.987Z,28473
2019-02-12T12:16:58.949Z,47797
2019-02-12T12:17:28.979Z,47977
2019-02-12T12:17:59.014Z,35037
2019-02-12T12:18:29.070Z,36713
2019-02-12T12:18:59.106Z,27127
2019-02-12T12:19:29.117Z,25903
2019-02-12T12:19:59.187Z,25043
2019-02-12T12:20:29.202Z,25577
2019-02-12T12:20:59.244Z,25033
2019-02-12T12:21:29.340Z,21977
2019-02-12T12:21:59.305Z,19207
2019-02-12T12:22:29.320Z,35500
2019-02-12T12:22:59.361Z,37727
2019-02-12T12:23:29.411Z,40410
2019-02-12T12:23:59.430Z,40727
2019-02-12T12:24:29.556Z,22637
2019-02-12T12:24:59.447Z,21180
2019-02-12T12:25:29.476Z,20507
2019-02-12T12:25:59.534Z,36670
2019-02-12T12:26:29.607Z,37803
2019-02-12T12:26:59.611Z,35820
2019-02-12T12:27:29.609Z,18380
2019-02-12T12:27:59.663Z,18527
2019-02-12T12:28:29.793Z,33753
2019-02-12T12:28:59.690Z,16663
2019-02-12T12:29:29.871Z,13867
2019-02-12T12:29:59.800Z,13983
2019-02-12T12:30:29.851Z,15593
2019-02-12T12:30:59.844Z,12097
2019-02-12T12:31:29.949Z,11910
2019-02-12T12:31:59.908Z,26707
2019-02-12T12:32:29.953Z,27620
2019-02-12T12:32:59.945Z,23427
2019-02-12T12:33:30.015Z,29127
2019-02-12T12:34:00.029Z,22040
2019-02-12T12:34:30.064Z,12683
2019-02-12T12:35:00.249Z,28613
2019-02-12T12:35:30.172Z,27577
2019-02-12T12:36:00.172Z,12480
2019-02-12T12:36:30.230Z,12543
2019-02-12T12:37:00.193Z,13207
2019-02-12T12:37:30.261Z,19670
2019-02-12T12:38:01.747Z,12957
2019-02-12T12:38:30.322Z,12827
2019-02-12T12:39:02.484Z,13890
2019-02-12T12:39:30.405Z,24320
2019-02-12T12:40:00.934Z,26360
2019-02-12T12:40:30.451Z,27203
2019-02-12T12:41:00.905Z,30453
2019-02-12T12:41:30.535Z,31833
2019-02-12T12:42:00.968Z,22197
2019-02-12T12:42:30.584Z,30020
2019-02-12T12:43:01.031Z,17067
2019-02-12T12:43:30.659Z,24817
2019-02-12T12:44:00.921Z,31433
2019-02-12T12:44:30.644Z,28630
2019-02-12T12:45:01.191Z,29067
2019-02-12T12:45:30.770Z,25297
2019-02-12T12:46:00.942Z,15063
2019-02-12T12:46:30.864Z,15520
2019-02-12T12:47:01.040Z,18693
2019-02-12T12:47:30.884Z,14873
2019-02-12T12:48:00.976Z,19050
2019-02-12T12:48:30.930Z,21773
2019-02-12T12:49:00.924Z,18160
2019-02-12T12:49:31.037Z,28000
2019-02-12T12:50:01.189Z,20927
2019-02-12T12:50:31.082Z,25163
2019-02-12T12:51:01.615Z,23883
2019-02-12T12:51:31.176Z,23477